createdAt,value
2022-08-07T00:02:41.223Z,0.80
2022-08-07T00:05:01.063Z,0.60
2022-08-07T00:07:36.873Z,0.70
2022-08-07T00:10:29.622Z,0.83
2022-08-07T00:13:23.556Z,0.87
2022-08-07T00:15:53.428Z,0.70
2022-08-07T00:18:27.577Z,0.90
2022-08-07T00:21:01.747Z,0.70
2022-08-07T00:23:32.701Z,0.70
2022-08-07T00:26:13.182Z,0.70
2022-08-07T00:28:55.647Z,0.90
2022-08-07T00:31:37.382Z,0.70
2022-08-07T00:34:08.854Z,0.83
2022-08-07T00:36:43.064Z,0.97
2022-08-07T00:39:16.976Z,0.90
2022-08-07T00:42:02.332Z,0.67
2022-08-07T00:44:34.001Z,0.80
2022-08-07T00:47:02.790Z,0.90
2022-08-07T00:50:19.127Z,0.87
2022-08-07T00:52:21.121Z,0.80
2022-08-07T00:54:53.810Z,1.03
2022-08-07T00:57:25.935Z,0.80
2022-08-07T00:59:55.382Z,0.70
2022-08-07T01:02:29.348Z,0.90
2022-08-07T01:04:59.984Z,0.73
2022-08-07T01:07:31.209Z,0.80
2022-08-07T01:10:05.668Z,0.80
2022-08-07T01:12:36.458Z,0.60
2022-08-07T01:15:07.476Z,0.93
2022-08-07T01:17:41.414Z,0.90
2022-08-07T01:20:16.585Z,0.77
2022-08-07T01:23:09.126Z,0.80
2022-08-07T01:25:53.500Z,0.90
2022-08-07T01:28:24.039Z,0.80
2022-08-07T01:30:56.956Z,0.80
2022-08-07T01:33:30.111Z,0.80
2022-08-07T01:36:16.807Z,0.77
2022-08-07T01:38:48.342Z,0.80
2022-08-07T01:41:25.877Z,0.80
2022-08-07T01:43:56.019Z,0.90
2022-08-07T01:46:24.734Z,0.90
2022-08-07T01:48:54.066Z,0.80
2022-08-07T01:52:03.869Z,0.80
2022-08-07T01:54:32.930Z,0.73
2022-08-07T01:57:24.249Z,0.73
2022-08-07T02:00:01.855Z,1.13
2022-08-07T02:03:18.274Z,0.83
2022-08-07T02:05:48.169Z,0.83
2022-08-07T02:08:30.225Z,1.10
2022-08-07T02:11:03.971Z,0.97
2022-08-07T02:14:00.833Z,0.90
2022-08-07T02:16:32.862Z,1.00
2022-08-07T02:20:05.280Z,1.10
2022-08-07T02:21:58.519Z,1.00
2022-08-07T02:24:29.351Z,1.00
2022-08-07T02:27:02.474Z,1.00
2022-08-07T02:29:36.725Z,0.97
2022-08-07T02:32:13.792Z,0.90
2022-08-07T02:34:51.206Z,1.00
2022-08-07T02:37:25.974Z,1.00
2022-08-07T02:40:02.483Z,1.00
2022-08-07T02:42:51.294Z,1.10
2022-08-07T02:46:00.962Z,1.10
2022-08-07T02:48:15.965Z,1.10
2022-08-07T02:50:53.444Z,1.00
2022-08-07T02:53:29.555Z,1.27
2022-08-07T02:56:05.770Z,1.00
2022-08-07T02:58:46.983Z,1.10
2022-08-07T03:01:35.584Z,1.10
2022-08-07T03:04:12.813Z,1.10
2022-08-07T03:06:44.605Z,1.20
2022-08-07T03:09:43.628Z,1.30
2022-08-07T03:12:06.567Z,1.20
2022-08-07T03:14:39.723Z,1.10
2022-08-07T03:17:10.211Z,1.17
2022-08-07T03:19:40.976Z,1.10
2022-08-07T03:22:19.030Z,1.37
2022-08-07T03:24:48.956Z,1.40
2022-08-07T03:27:30.485Z,1.30
2022-08-07T03:30:11.457Z,1.33
2022-08-07T03:32:49.032Z,1.20
2022-08-07T03:35:43.738Z,1.27
2022-08-07T03:38:29.566Z,1.37
2022-08-07T03:41:04.919Z,1.30
2022-08-07T03:43:36.105Z,1.30
2022-08-07T03:46:10.320Z,1.40
2022-08-07T03:49:02.868Z,1.40
2022-08-07T03:51:47.307Z,1.40
2022-08-07T03:54:36.021Z,1.47
2022-08-07T03:57:09.327Z,1.10
2022-08-07T03:59:46.821Z,1.50
2022-08-07T04:02:32.036Z,1.77
2022-08-07T04:05:00.771Z,1.27
2022-08-07T04:07:41.730Z,1.37
2022-08-07T04:10:15.383Z,1.53
2022-08-07T04:12:45.830Z,1.60
2022-08-07T04:15:18.292Z,1.20
2022-08-07T04:18:57.081Z,1.30
2022-08-07T04:20:38.036Z,1.20
2022-08-07T04:23:25.402Z,1.50
2022-08-07T04:26:14.167Z,1.40
2022-08-07T04:28:45.890Z,1.40
2022-08-07T04:31:19.820Z,1.30
2022-08-07T04:33:55.161Z,1.33
2022-08-07T04:36:26.225Z,1.17
2022-08-07T04:38:55.482Z,1.20
2022-08-07T04:41:23.913Z,1.17
2022-08-07T04:44:12.791Z,1.30
2022-08-07T04:47:04.226Z,1.03
2022-08-07T04:50:02.076Z,1.20
2022-08-07T04:52:51.304Z,1.40
2022-08-07T04:58:13.809Z,0.90
2022-08-07T04:58:47.568Z,1.00
2022-08-07T05:01:32.833Z,1.10
2022-08-07T05:04:17.796Z,1.20
2022-08-07T05:07:19.779Z,0.90
2022-08-07T05:10:01.434Z,1.10
2022-08-07T05:12:51.376Z,1.10
2022-08-07T05:15:31.176Z,1.40
2022-08-07T05:18:09.289Z,1.30
2022-08-07T05:20:44.655Z,1.03
2022-08-07T05:23:23.199Z,0.90
2022-08-07T05:26:13.519Z,1.00
2022-08-07T05:28:52.502Z,1.10
2022-08-07T05:31:34.531Z,1.60
2022-08-07T05:34:05.835Z,1.40
2022-08-07T05:36:45.050Z,1.37
2022-08-07T05:40:13.793Z,1.20
2022-08-07T05:42:34.492Z,1.20
2022-08-07T05:45:25.974Z,1.20
2022-08-07T05:48:06.106Z,1.43
2022-08-07T05:50:42.914Z,1.10
2022-08-07T05:54:09.649Z,1.27
2022-08-07T05:56:09.163Z,1.67
2022-08-07T05:58:49.323Z,1.17
2022-08-07T06:01:24.623Z,1.17
2022-08-07T06:04:01.091Z,1.13
2022-08-07T06:06:37.139Z,1.00
2022-08-07T06:09:09.702Z,1.00
2022-08-07T06:11:45.306Z,1.00
2022-08-07T06:14:21.174Z,0.90
2022-08-07T06:17:02.026Z,1.20
2022-08-07T06:19:58.112Z,1.20
2022-08-07T06:22:38.520Z,1.27
2022-08-07T06:25:20.061Z,0.90
2022-08-07T06:28:01.686Z,1.07
2022-08-07T06:30:35.726Z,0.90
2022-08-07T06:33:16.201Z,1.10
2022-08-07T06:36:13.380Z,1.10
2022-08-07T06:38:58.556Z,0.93
2022-08-07T06:42:02.096Z,0.70
2022-08-07T06:44:51.137Z,0.80
2022-08-07T06:47:21.311Z,1.20
2022-08-07T06:49:58.531Z,1.07
2022-08-07T06:52:36.773Z,1.30
2022-08-07T06:55:32.012Z,1.20
2022-08-07T06:58:11.836Z,1.50
2022-08-07T07:00:53.014Z,1.30
2022-08-07T07:03:39.872Z,1.20
2022-08-07T07:06:11.431Z,0.90
2022-08-07T07:08:46.713Z,1.00
2022-08-07T07:12:08.518Z,0.97
2022-08-07T07:14:08.471Z,0.70
2022-08-07T07:16:49.767Z,0.80
2022-08-07T07:19:56.972Z,1.00
2022-08-07T07:22:36.435Z,0.70
2022-08-07T07:26:31.280Z,0.63
2022-08-07T07:28:29.902Z,0.87
2022-08-07T07:31:06.067Z,0.70
2022-08-07T07:33:40.119Z,0.80
2022-08-07T07:36:12.745Z,0.70
2022-08-07T07:38:46.158Z,0.70
2022-08-07T07:41:19.354Z,0.90
2022-08-07T07:44:17.994Z,0.70
2022-08-07T07:46:55.718Z,0.80
2022-08-07T07:50:33.755Z,0.70
2022-08-07T07:52:26.795Z,0.87
2022-08-07T07:54:58.304Z,0.80
2022-08-07T07:57:51.518Z,0.77
2022-08-07T08:00:29.201Z,0.53
2022-08-07T08:03:07.847Z,0.50
2022-08-07T08:05:54.941Z,0.80
2022-08-07T08:08:35.636Z,0.73
2022-08-07T08:11:13.686Z,0.60
2022-08-07T08:13:53.890Z,1.03
2022-08-07T08:16:35.615Z,0.80
2022-08-07T08:19:09.886Z,0.80
2022-08-07T08:22:09.694Z,1.60
2022-08-07T08:25:15.903Z,0.50
2022-08-07T08:27:56.380Z,0.50
2022-08-07T08:30:34.577Z,0.90
2022-08-07T08:33:15.205Z,0.50
2022-08-07T08:35:50.754Z,0.70
2022-08-07T08:38:30.066Z,0.60
2022-08-07T08:41:15.611Z,1.00
2022-08-07T08:43:59.359Z,0.60
2022-08-07T08:46:44.988Z,0.60
2022-08-07T08:49:32.657Z,0.60
2022-08-07T08:52:16.403Z,0.73
2022-08-07T08:54:58.448Z,0.67
2022-08-07T08:57:41.001Z,0.63
2022-08-07T09:00:13.889Z,0.73
2022-08-07T09:02:57.770Z,1.43
2022-08-07T09:05:41.806Z,1.10
2022-08-07T09:08:32.860Z,0.60
2022-08-07T09:11:24.988Z,0.50
2022-08-07T09:14:13.904Z,0.57
2022-08-07T09:16:58.726Z,0.53
2022-08-07T09:19:53.556Z,0.70
2022-08-07T09:24:32.441Z,0.60
2022-08-07T09:25:43.402Z,0.60
2022-08-07T09:30:05.008Z,0.70
2022-08-07T09:31:48.415Z,0.60
2022-08-07T09:34:27.387Z,0.77
2022-08-07T09:37:04.034Z,0.50
2022-08-07T09:39:53.833Z,0.60
2022-08-07T09:42:45.535Z,0.60
2022-08-07T09:47:25.279Z,0.50
2022-08-07T09:49:02.255Z,0.50
2022-08-07T09:52:10.378Z,0.60
2022-08-07T09:54:41.176Z,0.77
2022-08-07T09:58:00.677Z,0.63
2022-08-07T10:00:51.678Z,0.90
2022-08-07T10:04:06.407Z,0.50
2022-08-07T10:07:26.262Z,0.47
2022-08-07T10:10:30.416Z,0.70
2022-08-07T10:14:00.686Z,0.87
2022-08-07T10:17:00.930Z,0.60
2022-08-07T10:19:47.658Z,0.53
2022-08-07T10:22:39.088Z,0.50
2022-08-07T10:25:42.071Z,0.50
2022-08-07T10:28:38.968Z,0.53
2022-08-07T10:31:38.651Z,0.50
2022-08-07T10:34:31.942Z,0.50
2022-08-07T10:37:26.197Z,0.50
2022-08-07T10:40:09.003Z,0.50
2022-08-07T10:42:43.763Z,0.50
2022-08-07T10:45:45.349Z,0.40
2022-08-07T10:48:37.121Z,0.60
2022-08-07T10:51:16.735Z,0.50
2022-08-07T10:54:16.128Z,0.57
2022-08-07T10:56:59.994Z,0.60
2022-08-07T10:59:48.935Z,1.63
2022-08-07T11:02:34.118Z,1.33
2022-08-07T11:05:24.115Z,0.50
2022-08-07T11:08:08.295Z,0.40
2022-08-07T11:10:55.418Z,0.43
2022-08-07T11:14:42.074Z,0.50
2022-08-07T11:16:34.249Z,0.53
2022-08-07T11:19:12.434Z,0.50
2022-08-07T11:21:51.237Z,0.50
2022-08-07T11:24:31.347Z,0.60
2022-08-07T11:27:13.527Z,0.70
2022-08-07T11:30:18.077Z,0.50
2022-08-07T11:32:52.860Z,0.70
2022-08-07T11:35:27.146Z,0.70
2022-08-07T11:38:12.603Z,0.40
2022-08-07T11:40:52.650Z,0.40
2022-08-07T11:43:41.297Z,0.40
2022-08-07T11:46:48.658Z,0.67
2022-08-07T11:50:11.516Z,0.50
2022-08-07T11:52:52.763Z,0.50
2022-08-07T11:56:25.585Z,0.67
2022-08-07T11:58:50.134Z,0.60
2022-08-07T12:01:59.230Z,0.47
2022-08-07T12:05:03.165Z,0.67
2022-08-07T12:07:53.468Z,0.43
2022-08-07T12:10:41.816Z,0.50
2022-08-07T12:13:35.782Z,0.80
2022-08-07T12:16:30.291Z,0.60
2022-08-07T12:19:14.542Z,0.60
2022-08-07T12:21:55.542Z,0.60
2022-08-07T12:26:00.934Z,0.60
2022-08-07T12:28:12.319Z,0.80
2022-08-07T12:30:46.710Z,0.50
2022-08-07T12:33:23.202Z,0.70
2022-08-07T12:35:59.186Z,0.67
2022-08-07T12:38:42.629Z,0.67
2022-08-07T12:41:13.882Z,0.50
2022-08-07T12:44:03.152Z,0.67
2022-08-07T12:46:57.319Z,0.43
2022-08-07T12:49:51.433Z,0.73
2022-08-07T12:52:37.255Z,1.00
2022-08-07T12:55:18.494Z,0.60
2022-08-07T12:58:00.955Z,0.50
2022-08-07T13:00:49.607Z,0.50
2022-08-07T13:04:03.183Z,0.60
2022-08-07T13:07:09.993Z,0.60
2022-08-07T13:10:38.127Z,0.40
2022-08-07T13:13:47.116Z,0.67
2022-08-07T13:16:30.344Z,1.00
2022-08-07T13:19:21.838Z,0.60
2022-08-07T13:22:19.328Z,0.60
2022-08-07T13:24:57.763Z,0.53
2022-08-07T13:28:12.604Z,0.50
2022-08-07T13:30:43.465Z,0.50
2022-08-07T13:34:31.413Z,0.90
2022-08-07T13:36:22.031Z,0.70
2022-08-07T13:39:13.040Z,0.43
2022-08-07T13:41:59.067Z,0.40
2022-08-07T13:44:34.419Z,0.70
2022-08-07T13:47:09.509Z,0.70
2022-08-07T13:50:33.729Z,0.57
2022-08-07T13:52:40.890Z,0.53
2022-08-07T13:55:19.779Z,0.40
2022-08-07T13:58:27.989Z,0.60
2022-08-07T14:01:10.734Z,0.47
2022-08-07T14:04:07.487Z,0.97
2022-08-07T14:06:39.947Z,0.60
2022-08-07T14:10:12.327Z,0.80
2022-08-07T14:12:14.679Z,0.50
2022-08-07T14:14:55.451Z,0.47
2022-08-07T14:18:12.087Z,0.40
2022-08-07T14:20:39.371Z,0.60
2022-08-07T14:23:59.135Z,0.60
2022-08-07T14:26:28.469Z,0.60
2022-08-07T14:30:03.056Z,0.53
2022-08-07T14:31:57.881Z,0.47
2022-08-07T14:34:31.997Z,0.50
2022-08-07T14:37:04.455Z,0.50
2022-08-07T14:40:17.945Z,0.50
2022-08-07T14:42:33.656Z,0.70
2022-08-07T14:45:21.951Z,0.60
2022-08-07T14:47:58.581Z,0.70
2022-08-07T14:50:31.611Z,0.80
2022-08-07T14:53:09.853Z,0.57
2022-08-07T14:55:55.586Z,0.50
2022-08-07T14:58:34.737Z,0.57
2022-08-07T15:04:05.605Z,0.60
2022-08-07T15:06:39.025Z,0.83
2022-08-07T15:12:10.687Z,0.50
2022-08-07T15:15:07.851Z,0.60
2022-08-07T15:18:02.802Z,0.50
2022-08-07T15:20:55.399Z,0.63
2022-08-07T15:26:33.112Z,0.57
2022-08-07T15:32:01.983Z,0.60
2022-08-07T15:34:37.457Z,0.70
2022-08-07T15:37:27.913Z,0.50
2022-08-07T15:40:01.528Z,0.50
2022-08-07T15:42:53.836Z,0.40
2022-08-07T15:45:57.602Z,0.70
2022-08-07T15:48:30.165Z,0.70
2022-08-07T15:51:12.001Z,0.80
2022-08-07T15:53:52.749Z,0.50
2022-08-07T15:56:33.267Z,0.57
2022-08-07T15:59:06.448Z,0.60
2022-08-07T16:02:01.748Z,0.60
2022-08-07T16:04:35.353Z,0.70
2022-08-07T16:07:32.048Z,0.70
2022-08-07T16:10:15.003Z,0.40
2022-08-07T16:13:04.740Z,0.53
2022-08-07T16:16:06.667Z,0.57
2022-08-07T16:19:10.005Z,0.60
2022-08-07T16:22:05.789Z,0.50
2022-08-07T16:24:53.068Z,0.50
2022-08-07T16:27:40.311Z,0.70
2022-08-07T16:30:30.781Z,0.67
2022-08-07T16:34:02.073Z,0.63
2022-08-07T16:36:31.163Z,0.67
2022-08-07T16:39:49.337Z,0.60
2022-08-07T16:42:43.744Z,0.80
2022-08-07T16:46:34.748Z,0.50
2022-08-07T16:50:28.789Z,0.60
2022-08-07T16:53:14.767Z,0.60
2022-08-07T16:56:00.975Z,1.07
2022-08-07T16:59:11.252Z,0.70
2022-08-07T17:02:00.303Z,0.53
2022-08-07T17:04:50.914Z,0.70
2022-08-07T17:07:55.507Z,0.60
2022-08-07T17:10:38.348Z,0.60
2022-08-07T17:14:19.345Z,0.93
2022-08-07T17:16:55.887Z,0.67
2022-08-07T17:20:02.397Z,0.70
2022-08-07T17:22:38.027Z,0.50
2022-08-07T17:25:20.029Z,0.77
2022-08-07T17:28:17.697Z,0.70
2022-08-07T17:31:15.965Z,0.50
2022-08-07T17:34:15.134Z,0.50
2022-08-07T17:36:57.896Z,0.70
2022-08-07T17:39:57.710Z,0.63
2022-08-07T17:42:59.674Z,0.73
2022-08-07T17:45:36.828Z,0.53
2022-08-07T17:48:13.071Z,0.60
2022-08-07T17:50:55.493Z,0.60
2022-08-07T17:54:00.591Z,0.50
2022-08-07T17:56:33.411Z,0.60
2022-08-07T17:59:20.739Z,0.63
2022-08-07T18:01:58.562Z,0.73
2022-08-07T18:04:43.446Z,0.50
2022-08-07T18:07:34.083Z,0.50
2022-08-07T18:10:32.865Z,0.60
2022-08-07T18:13:16.820Z,0.60
2022-08-07T18:16:03.235Z,0.60
2022-08-07T18:21:04.598Z,0.70
2022-08-07T18:21:53.487Z,0.70
2022-08-07T18:24:34.675Z,0.40
2022-08-07T18:27:45.863Z,0.93
2022-08-07T18:30:32.711Z,0.50
2022-08-07T18:33:58.787Z,0.70
2022-08-07T18:36:53.878Z,0.70
2022-08-07T18:40:07.444Z,0.50
2022-08-07T18:42:56.033Z,0.60
2022-08-07T18:46:21.544Z,0.60
2022-08-07T18:50:31.465Z,0.70
2022-08-07T18:52:33.710Z,0.67
2022-08-07T18:54:49.690Z,0.70
2022-08-07T18:57:37.109Z,1.00
2022-08-07T19:00:34.570Z,1.20
2022-08-07T19:03:12.335Z,0.90
2022-08-07T19:06:02.526Z,0.83
2022-08-07T19:08:50.484Z,1.00
2022-08-07T19:11:36.002Z,0.90
2022-08-07T19:14:19.869Z,1.20
2022-08-07T19:17:05.644Z,1.10
2022-08-07T19:19:54.808Z,0.97
2022-08-07T19:22:34.060Z,0.90
2022-08-07T19:26:22.889Z,1.00
2022-08-07T19:28:57.515Z,0.87
2022-08-07T19:31:37.101Z,0.90
2022-08-07T19:34:02.524Z,0.80
2022-08-07T19:36:40.765Z,0.70
2022-08-07T19:39:13.962Z,0.70
2022-08-07T19:42:08.252Z,1.00
2022-08-07T19:44:41.117Z,0.60
2022-08-07T19:47:18.163Z,0.60
2022-08-07T19:50:02.947Z,0.73
2022-08-07T19:52:32.447Z,0.73
2022-08-07T19:55:02.831Z,0.77
2022-08-07T19:58:00.720Z,0.70
2022-08-07T20:00:34.468Z,0.60
2022-08-07T20:03:33.503Z,0.80
2022-08-07T20:06:02.477Z,0.80
2022-08-07T20:08:36.768Z,0.90
2022-08-07T20:11:12.219Z,0.90
2022-08-07T20:13:49.840Z,0.70
2022-08-07T20:16:35.737Z,0.90
2022-08-07T20:19:10.372Z,0.70
2022-08-07T20:21:46.560Z,0.60
2022-08-07T20:24:21.520Z,0.80
2022-08-07T20:26:54.540Z,0.73
2022-08-07T20:29:48.274Z,0.90
2022-08-07T20:32:25.225Z,0.80
2022-08-07T20:34:59.261Z,0.83
2022-08-07T20:37:46.788Z,1.10
2022-08-07T20:40:32.061Z,0.90
2022-08-07T20:43:09.463Z,0.90
2022-08-07T20:46:28.339Z,0.70
2022-08-07T20:49:53.881Z,1.07
2022-08-07T20:51:36.048Z,0.80
2022-08-07T20:54:12.394Z,0.80
2022-08-07T20:56:49.899Z,0.70
2022-08-07T21:00:04.305Z,0.90
2022-08-07T21:02:32.202Z,0.70
2022-08-07T21:05:04.636Z,0.80
2022-08-07T21:07:43.337Z,0.80
2022-08-07T21:10:29.757Z,0.90
2022-08-07T21:13:05.074Z,1.00
2022-08-07T21:15:47.501Z,0.80
2022-08-07T21:18:29.581Z,1.10
2022-08-07T21:21:04.288Z,0.90
2022-08-07T21:23:50.332Z,0.67
2022-08-07T21:26:37.546Z,0.93
2022-08-07T21:29:18.114Z,1.00
2022-08-07T21:32:46.989Z,1.00
2022-08-07T21:35:00.059Z,0.80
2022-08-07T21:37:58.247Z,0.80
2022-08-07T21:40:36.101Z,0.70
2022-08-07T21:43:11.549Z,0.90
2022-08-07T21:46:08.512Z,0.97
2022-08-07T21:48:56.955Z,0.83
2022-08-07T21:51:51.259Z,0.80
2022-08-07T21:54:36.128Z,1.60
2022-08-07T21:57:39.803Z,0.90
2022-08-07T22:00:22.013Z,0.90
2022-08-07T22:03:03.564Z,0.90
2022-08-07T22:05:48.224Z,0.93
2022-08-07T22:08:24.822Z,1.00
2022-08-07T22:10:59.963Z,0.90
2022-08-07T22:13:51.208Z,1.13
2022-08-07T22:16:41.670Z,1.00
2022-08-07T22:19:23.520Z,1.00
2022-08-07T22:22:21.497Z,1.07
2022-08-07T22:25:10.761Z,0.90
2022-08-07T22:28:08.036Z,1.10
2022-08-07T22:30:53.404Z,0.90
2022-08-07T22:33:52.633Z,1.10
2022-08-07T22:36:46.262Z,1.00
2022-08-07T22:39:35.207Z,0.77
2022-08-07T22:42:25.821Z,1.10
2022-08-07T22:45:04.020Z,0.90
2022-08-07T22:48:31.617Z,1.00
2022-08-07T22:51:36.308Z,1.00
2022-08-07T22:54:34.522Z,1.00
2022-08-07T22:57:37.372Z,1.10
2022-08-07T23:00:21.476Z,1.00
2022-08-07T23:03:58.530Z,1.40
2022-08-07T23:07:00.082Z,1.10
2022-08-07T23:10:00.611Z,1.00
2022-08-07T23:12:56.836Z,1.33
2022-08-07T23:16:06.092Z,1.00
2022-08-07T23:19:11.293Z,1.03
2022-08-07T23:21:54.906Z,1.10
2022-08-07T23:24:45.707Z,0.90
2022-08-07T23:28:21.410Z,1.60
2022-08-07T23:32:48.697Z,1.00
2022-08-07T23:34:42.419Z,0.93
2022-08-07T23:38:01.095Z,1.00
2022-08-07T23:40:39.685Z,1.23
2022-08-07T23:44:01.695Z,1.23
2022-08-07T23:47:13.121Z,1.23
2022-08-07T23:50:16.026Z,1.20
2022-08-07T23:53:06.551Z,1.00
2022-08-07T23:55:55.584Z,1.20
2022-08-07T23:58:38.740Z,1.03
